createdAt,value
2023-04-16T00:00:08.318Z,1.23
2023-04-16T00:02:34.882Z,0.93
2023-04-16T00:05:01.645Z,1.13
2023-04-16T00:07:28.088Z,0.60
2023-04-16T00:09:54.459Z,1.17
2023-04-16T00:12:20.825Z,0.87
2023-04-16T00:14:47.892Z,0.90
2023-04-16T00:17:14.357Z,0.80
2023-04-16T00:19:40.949Z,0.50
2023-04-16T00:22:07.334Z,0.63
2023-04-16T00:24:33.758Z,0.67
2023-04-16T00:27:01.543Z,1.67
2023-04-16T00:29:28.723Z,1.00
2023-04-16T00:31:55.321Z,1.35
2023-04-16T00:34:21.741Z,1.60
2023-04-16T00:36:48.126Z,1.07
2023-04-16T00:39:14.489Z,1.02
2023-04-16T00:41:41.193Z,1.58
2023-04-16T00:44:07.606Z,1.02
2023-04-16T00:46:35.483Z,1.35
2023-04-16T00:49:02.896Z,1.47
2023-04-16T00:51:29.820Z,1.83
2023-04-16T00:53:57.728Z,2.30
2023-04-16T00:56:25.525Z,1.80
2023-04-16T00:58:52.089Z,2.10
2023-04-16T01:01:18.547Z,1.90
2023-04-16T01:03:47.331Z,1.13
2023-04-16T01:06:14.806Z,1.80
2023-04-16T01:08:41.234Z,1.80
2023-04-16T01:11:07.833Z,1.67
2023-04-16T01:13:39.040Z,1.97
2023-04-16T01:16:10.344Z,1.50
2023-04-16T01:18:37.838Z,2.25
2023-04-16T01:21:04.960Z,2.72
2023-04-16T01:23:31.579Z,1.52
2023-04-16T01:25:58.107Z,1.87
2023-04-16T01:28:24.841Z,1.83
2023-04-16T01:30:51.271Z,2.05
2023-04-16T01:33:18.701Z,1.67
2023-04-16T01:35:45.250Z,1.70
2023-04-16T01:38:12.130Z,2.27
2023-04-16T01:40:38.857Z,1.67
2023-04-16T01:43:08.625Z,2.03
2023-04-16T01:45:35.537Z,1.77
2023-04-16T01:48:03.335Z,2.13
2023-04-16T01:50:31.879Z,2.10
2023-04-16T01:52:58.359Z,2.40
2023-04-16T01:55:24.875Z,2.03
2023-04-16T01:57:51.282Z,2.17
2023-04-16T02:00:17.781Z,2.55
2023-04-16T02:02:44.425Z,1.80
2023-04-16T02:05:11.327Z,2.28
2023-04-16T02:07:38.068Z,2.22
2023-04-16T02:10:05.370Z,2.35
2023-04-16T02:12:34.461Z,2.53
2023-04-16T02:15:01.007Z,2.60
2023-04-16T02:17:27.605Z,2.80
2023-04-16T02:19:54.043Z,3.70
2023-04-16T02:22:20.557Z,3.45
2023-04-16T02:24:46.999Z,3.70
2023-04-16T02:27:13.397Z,3.00
2023-04-16T02:29:40.480Z,3.45
2023-04-16T02:32:07.054Z,3.95
2023-04-16T02:34:34.868Z,4.45
2023-04-16T02:37:01.228Z,4.90
2023-04-16T02:39:27.624Z,5.10
2023-04-16T02:41:54.341Z,4.95
2023-04-16T02:44:20.765Z,4.85
2023-04-16T02:46:47.113Z,4.68
2023-04-16T02:49:13.490Z,4.45
2023-04-16T02:51:39.970Z,4.17
2023-04-16T02:54:06.327Z,4.10
2023-04-16T02:56:32.700Z,4.75
2023-04-16T02:58:59.067Z,4.57
2023-04-16T03:01:25.478Z,4.60
2023-04-16T03:03:51.926Z,4.43
2023-04-16T03:06:18.281Z,4.45
2023-04-16T03:08:44.675Z,4.82
2023-04-16T03:11:11.400Z,5.85
2023-04-16T03:13:37.776Z,5.65
2023-04-16T03:16:04.358Z,5.60
2023-04-16T03:18:30.989Z,5.65
2023-04-16T03:20:57.482Z,6.00
2023-04-16T03:23:23.916Z,5.20
2023-04-16T03:25:50.394Z,5.55
2023-04-16T03:28:16.749Z,5.10
2023-04-16T03:30:43.189Z,5.38
2023-04-16T03:33:09.583Z,4.80
2023-04-16T03:35:36.067Z,4.57
2023-04-16T03:38:02.451Z,4.55
2023-04-16T03:40:28.982Z,4.70
2023-04-16T03:42:55.653Z,4.35
2023-04-16T03:45:22.118Z,4.25
2023-04-16T03:47:52.531Z,4.55
2023-04-16T03:50:19.759Z,4.07
2023-04-16T03:52:46.972Z,3.87
2023-04-16T03:55:13.891Z,4.20
2023-04-16T03:57:41.035Z,5.03
2023-04-16T04:00:08.800Z,4.45
2023-04-16T04:02:35.249Z,5.20
2023-04-16T04:05:01.866Z,4.27
2023-04-16T04:07:28.301Z,4.68
2023-04-16T04:09:54.716Z,5.00
2023-04-16T04:12:21.136Z,4.78
2023-04-16T04:14:47.526Z,6.10
2023-04-16T04:17:13.935Z,5.43
2023-04-16T04:19:47.107Z,4.60
2023-04-16T04:22:17.320Z,5.35
2023-04-16T04:24:43.719Z,5.57
2023-04-16T04:27:10.406Z,5.50
2023-04-16T04:29:36.770Z,4.77
2023-04-16T04:32:03.307Z,4.47
2023-04-16T04:34:30.106Z,4.45
2023-04-16T04:36:56.698Z,5.43
2023-04-16T04:39:23.211Z,4.47
2023-04-16T04:41:49.651Z,5.30
2023-04-16T04:44:16.035Z,5.50
2023-04-16T04:46:42.472Z,5.13
2023-04-16T04:49:09.067Z,4.97
2023-04-16T04:51:35.796Z,4.95
2023-04-16T04:54:02.155Z,5.30
2023-04-16T04:56:28.566Z,6.10
2023-04-16T04:58:54.956Z,5.93
2023-04-16T05:01:21.363Z,5.30
2023-04-16T05:03:47.844Z,6.03
2023-04-16T05:06:14.355Z,5.00
2023-04-16T05:08:40.758Z,5.43
2023-04-16T05:11:07.194Z,5.13
2023-04-16T05:13:33.578Z,5.45
2023-04-16T05:15:59.986Z,4.55
2023-04-16T05:18:26.723Z,5.70
2023-04-16T05:20:53.239Z,5.15
2023-04-16T05:23:19.679Z,5.75
2023-04-16T05:25:46.103Z,6.15
2023-04-16T05:28:12.521Z,4.95
2023-04-16T05:30:38.978Z,5.03
2023-04-16T05:33:05.785Z,6.05
2023-04-16T05:35:32.163Z,4.57
2023-04-16T05:37:58.634Z,4.78
2023-04-16T05:40:25.317Z,4.97
2023-04-16T05:42:51.820Z,4.43
2023-04-16T05:45:18.226Z,4.95
2023-04-16T05:47:44.682Z,5.25
2023-04-16T05:50:11.228Z,4.20
2023-04-16T05:52:38.540Z,4.72
2023-04-16T05:55:05.844Z,4.17
2023-04-16T05:57:33.275Z,4.45
2023-04-16T05:59:59.681Z,5.45
2023-04-16T06:02:26.381Z,5.13
2023-04-16T06:04:52.883Z,5.30
2023-04-16T06:07:19.331Z,4.97
2023-04-16T06:09:45.781Z,4.88
2023-04-16T06:12:12.515Z,5.00
2023-04-16T06:14:38.941Z,5.68
2023-04-16T06:17:05.309Z,5.28
2023-04-16T06:19:31.776Z,4.77
2023-04-16T06:21:58.242Z,5.53
2023-04-16T06:24:24.721Z,6.03
2023-04-16T06:26:51.199Z,6.03
2023-04-16T06:29:17.609Z,5.60
2023-04-16T06:31:44.061Z,5.20
2023-04-16T06:34:10.610Z,6.15
2023-04-16T06:36:37.659Z,6.00
2023-04-16T06:39:04.273Z,6.45
2023-04-16T06:41:30.759Z,6.43
2023-04-16T06:43:57.225Z,5.67
2023-04-16T06:46:23.650Z,6.45
2023-04-16T06:48:50.130Z,7.10
2023-04-16T06:51:16.586Z,7.10
2023-04-16T06:53:43.020Z,7.45
2023-04-16T06:56:09.403Z,6.53
2023-04-16T06:58:36.326Z,7.07
2023-04-16T07:01:02.891Z,9.57
2023-04-16T07:03:29.507Z,7.60
2023-04-16T07:05:56.688Z,8.50
2023-04-16T07:08:23.088Z,9.50
2023-04-16T07:10:49.539Z,7.85
2023-04-16T07:13:16.032Z,7.93
2023-04-16T07:15:42.436Z,8.50
2023-04-16T07:18:09.457Z,8.13
2023-04-16T07:20:36.410Z,7.03
2023-04-16T07:23:02.857Z,7.30
2023-04-16T07:25:29.293Z,7.50
2023-04-16T07:27:55.687Z,6.72
2023-04-16T07:30:22.109Z,7.07
2023-04-16T07:32:48.680Z,5.70
2023-04-16T07:35:15.133Z,5.95
2023-04-16T07:37:41.557Z,6.25
2023-04-16T07:40:08.573Z,6.07
2023-04-16T07:42:35.590Z,7.60
2023-04-16T07:45:02.044Z,6.50
2023-04-16T07:47:28.517Z,6.65
2023-04-16T07:49:54.988Z,6.20
2023-04-16T07:52:21.449Z,6.70
2023-04-16T07:54:47.826Z,5.82
2023-04-16T07:57:14.260Z,5.87
2023-04-16T07:59:40.910Z,5.55
2023-04-16T08:02:09.889Z,6.32
2023-04-16T08:04:36.567Z,5.82
2023-04-16T08:07:03.091Z,6.40
2023-04-16T08:09:29.641Z,5.40
2023-04-16T08:11:56.295Z,5.07
2023-04-16T08:14:23.151Z,5.85
2023-04-16T08:16:49.769Z,5.15
2023-04-16T08:19:16.160Z,5.15
2023-04-16T08:21:42.753Z,5.43
2023-04-16T08:24:09.148Z,4.70
2023-04-16T08:26:35.631Z,4.65
2023-04-16T08:29:02.148Z,4.75
2023-04-16T08:31:30.475Z,4.93
2023-04-16T08:33:57.064Z,3.93
2023-04-16T08:36:23.491Z,4.00
2023-04-16T08:38:50.621Z,4.13
2023-04-16T08:41:17.212Z,3.85
2023-04-16T08:43:45.419Z,3.92
2023-04-16T08:46:12.605Z,3.27
2023-04-16T08:48:42.078Z,3.55
2023-04-16T08:51:10.965Z,2.97
2023-04-16T08:53:52.012Z,3.67
2023-04-16T08:56:21.124Z,3.67
2023-04-16T08:58:50.012Z,3.30
2023-04-16T09:01:18.261Z,3.38
2023-04-16T09:03:47.920Z,3.13
2023-04-16T09:06:16.329Z,3.20
2023-04-16T09:08:46.530Z,3.08
2023-04-16T09:11:21.985Z,3.33
2023-04-16T09:13:48.346Z,3.35
2023-04-16T09:16:15.345Z,3.30
2023-04-16T09:18:42.093Z,3.50
2023-04-16T09:21:10.541Z,3.10
2023-04-16T09:23:38.733Z,2.97
2023-04-16T09:26:06.047Z,3.20
2023-04-16T09:28:39.347Z,3.17
2023-04-16T09:31:16.359Z,3.30
2023-04-16T09:33:44.060Z,3.22
2023-04-16T09:36:11.163Z,2.87
2023-04-16T09:38:51.840Z,3.50
2023-04-16T09:41:19.007Z,3.55
2023-04-16T09:44:05.053Z,3.25
2023-04-16T09:46:34.240Z,3.30
2023-04-16T09:49:17.169Z,3.80
2023-04-16T09:51:45.238Z,2.90
2023-04-16T09:54:11.861Z,3.30
2023-04-16T09:56:46.318Z,3.22
2023-04-16T09:59:25.266Z,4.32
2023-04-16T10:01:57.342Z,4.13
2023-04-16T10:04:51.283Z,4.07
2023-04-16T10:07:19.326Z,4.43
2023-04-16T10:09:48.486Z,4.28
2023-04-16T10:12:15.998Z,5.20
2023-04-16T10:14:42.765Z,4.40
2023-04-16T10:17:09.781Z,4.72
2023-04-16T10:19:36.569Z,5.00
2023-04-16T10:22:03.875Z,5.05
2023-04-16T10:24:31.898Z,6.05
2023-04-16T10:26:59.193Z,5.57
2023-04-16T10:29:27.848Z,6.47
2023-04-16T10:31:55.932Z,5.40
2023-04-16T10:34:24.301Z,5.38
2023-04-16T10:36:52.905Z,6.50
2023-04-16T10:39:22.684Z,6.13
2023-04-16T10:41:50.548Z,6.07
2023-04-16T10:44:20.030Z,5.70
2023-04-16T10:46:50.859Z,4.75
2023-04-16T10:49:24.604Z,5.53
2023-04-16T10:51:55.914Z,4.73
2023-04-16T10:54:32.448Z,5.40
2023-04-16T10:57:04.455Z,5.45
2023-04-16T10:59:34.795Z,5.28
2023-04-16T11:02:15.086Z,5.90
2023-04-16T11:04:49.334Z,5.37
2023-04-16T11:07:20.396Z,5.38
2023-04-16T11:09:59.756Z,5.45
2023-04-16T11:12:29.646Z,6.15
2023-04-16T11:15:07.134Z,4.95
2023-04-16T11:17:38.792Z,5.30
2023-04-16T11:20:19.023Z,4.38
2023-04-16T11:22:48.422Z,5.75
2023-04-16T11:25:20.899Z,5.85
2023-04-16T11:27:47.338Z,6.97
2023-04-16T11:30:14.177Z,6.13
2023-04-16T11:32:40.909Z,5.10
2023-04-16T11:35:18.643Z,5.97
2023-04-16T11:37:48.311Z,6.05
2023-04-16T11:40:14.803Z,6.30
2023-04-16T11:42:42.573Z,5.77
2023-04-16T11:45:11.249Z,6.95
2023-04-16T11:47:52.296Z,6.53
2023-04-16T11:50:27.721Z,6.57
2023-04-16T11:52:56.859Z,6.82
2023-04-16T11:55:24.158Z,7.00
2023-04-16T11:57:51.820Z,6.93
2023-04-16T12:00:19.034Z,6.65
2023-04-16T12:02:52.799Z,7.18
2023-04-16T12:05:27.918Z,7.28
2023-04-16T12:07:55.272Z,6.77
2023-04-16T12:10:21.791Z,7.40
2023-04-16T12:12:48.391Z,7.22
2023-04-16T12:15:14.822Z,6.82
2023-04-16T12:17:41.342Z,6.43
2023-04-16T12:20:13.066Z,6.73
2023-04-16T12:22:43.742Z,7.30
2023-04-16T12:25:18.188Z,6.50
2023-04-16T12:27:53.680Z,5.90
2023-04-16T12:30:22.867Z,6.65
2023-04-16T12:32:52.259Z,6.73
2023-04-16T12:35:33.835Z,6.38
2023-04-16T12:38:00.942Z,6.25
2023-04-16T12:40:27.554Z,5.20
2023-04-16T12:42:54.866Z,6.40
2023-04-16T12:45:21.907Z,5.43
2023-04-16T12:47:48.436Z,4.80
2023-04-16T12:50:14.932Z,6.13
2023-04-16T12:52:41.478Z,6.13
2023-04-16T12:55:08.254Z,6.47
2023-04-16T12:57:34.644Z,5.17
2023-04-16T13:00:01.161Z,5.10
2023-04-16T13:02:27.875Z,6.07
2023-04-16T13:04:54.863Z,5.93
2023-04-16T13:07:21.482Z,5.45
2023-04-16T13:09:47.946Z,5.67
2023-04-16T13:12:14.358Z,5.55
2023-04-16T13:14:42.048Z,6.55
2023-04-16T13:17:09.186Z,7.05
2023-04-16T13:19:35.882Z,6.85
2023-04-16T13:22:02.319Z,7.37
2023-04-16T13:24:30.518Z,7.15
2023-04-16T13:26:56.916Z,8.55
2023-04-16T13:29:23.372Z,6.13
2023-04-16T13:31:49.995Z,6.72
2023-04-16T13:34:16.480Z,6.70
2023-04-16T13:36:43.036Z,5.75
2023-04-16T13:39:12.393Z,7.28
2023-04-16T13:41:39.014Z,6.13
2023-04-16T13:44:05.707Z,5.70
2023-04-16T13:46:32.423Z,5.20
2023-04-16T13:48:58.908Z,5.70
2023-04-16T13:51:25.343Z,5.05
2023-04-16T13:53:51.758Z,4.78
2023-04-16T13:56:18.148Z,5.75
2023-04-16T13:58:44.510Z,5.10
2023-04-16T14:01:11.470Z,4.72
2023-04-16T14:03:39.033Z,4.95
2023-04-16T14:06:05.578Z,5.63
2023-04-16T14:08:32.337Z,4.40
2023-04-16T14:10:58.891Z,4.80
2023-04-16T14:13:25.686Z,4.57
2023-04-16T14:15:55.657Z,5.03
2023-04-16T14:18:22.187Z,4.53
2023-04-16T14:20:49.643Z,5.80
2023-04-16T14:23:16.066Z,4.93
2023-04-16T14:25:42.490Z,4.90
2023-04-16T14:28:09.345Z,4.75
2023-04-16T14:30:35.765Z,5.13
2023-04-16T14:33:05.732Z,4.55
2023-04-16T14:35:33.584Z,5.03
2023-04-16T14:38:01.236Z,5.00
2023-04-16T14:40:27.753Z,5.13
2023-04-16T14:42:54.462Z,5.03
2023-04-16T14:45:21.127Z,4.65
2023-04-16T14:47:48.165Z,4.87
2023-04-16T14:50:15.526Z,4.68
2023-04-16T14:52:42.115Z,5.47
2023-04-16T14:55:08.696Z,6.03
2023-04-16T14:57:35.374Z,5.32
2023-04-16T15:00:02.188Z,6.17
2023-04-16T15:02:29.040Z,5.45
2023-04-16T15:04:55.533Z,5.47
2023-04-16T15:07:22.071Z,4.50
2023-04-16T15:09:48.472Z,5.55
2023-04-16T15:12:16.199Z,5.07
2023-04-16T15:14:43.355Z,5.13
2023-04-16T15:17:09.994Z,5.47
2023-04-16T15:19:36.694Z,9.55
2023-04-16T15:22:03.145Z,8.10
2023-04-16T15:24:29.589Z,5.67
2023-04-16T15:26:56.316Z,5.50
2023-04-16T15:29:22.690Z,5.80
2023-04-16T15:31:49.160Z,5.32
2023-04-16T15:34:15.769Z,4.82
2023-04-16T15:36:42.220Z,5.73
2023-04-16T15:39:09.554Z,6.30
2023-04-16T15:41:46.935Z,5.40
2023-04-16T15:44:23.805Z,6.00
2023-04-16T15:46:50.362Z,6.30
2023-04-16T15:49:16.858Z,5.20
2023-04-16T15:51:43.316Z,6.22
2023-04-16T15:54:09.903Z,5.93
2023-04-16T15:56:36.473Z,6.90
2023-04-16T15:59:03.819Z,6.00
2023-04-16T16:01:31.077Z,6.50
2023-04-16T16:03:57.721Z,6.13
2023-04-16T16:06:25.070Z,8.63
2023-04-16T16:08:51.644Z,7.18
2023-04-16T16:11:18.062Z,6.80
2023-04-16T16:13:44.456Z,6.77
2023-04-16T16:16:11.059Z,6.45
2023-04-16T16:18:37.677Z,6.82
2023-04-16T16:21:04.148Z,6.22
2023-04-16T16:23:30.761Z,6.80
2023-04-16T16:26:00.230Z,6.90
2023-04-16T16:28:27.131Z,6.65
2023-04-16T16:30:55.471Z,6.63
2023-04-16T16:33:22.373Z,7.53
2023-04-16T16:35:48.937Z,6.50
2023-04-16T16:38:15.758Z,6.77
2023-04-16T16:40:42.162Z,7.00
2023-04-16T16:43:08.591Z,7.43
2023-04-16T16:45:35.298Z,6.78
2023-04-16T16:48:03.484Z,7.25
2023-04-16T16:50:32.826Z,6.13
2023-04-16T16:53:00.037Z,6.57
2023-04-16T16:55:26.735Z,7.47
2023-04-16T16:57:53.202Z,6.53
2023-04-16T17:00:21.428Z,7.03
2023-04-16T17:02:51.062Z,6.73
2023-04-16T17:05:17.919Z,6.47
2023-04-16T17:07:44.332Z,6.28
2023-04-16T17:10:13.027Z,6.63
2023-04-16T17:12:39.719Z,7.03
2023-04-16T17:15:06.884Z,6.23
2023-04-16T17:17:33.512Z,6.68
2023-04-16T17:20:01.030Z,6.68
2023-04-16T17:22:27.537Z,6.20
2023-04-16T17:24:54.313Z,6.68
2023-04-16T17:27:20.935Z,6.93
2023-04-16T17:29:47.302Z,6.32
2023-04-16T17:32:13.724Z,6.78
2023-04-16T17:34:40.964Z,6.80
2023-04-16T17:37:07.359Z,7.28
2023-04-16T17:39:33.941Z,6.43
2023-04-16T17:42:02.920Z,6.30
2023-04-16T17:44:29.302Z,6.55
2023-04-16T17:46:55.860Z,7.15
2023-04-16T17:49:22.314Z,6.93
2023-04-16T17:51:49.084Z,7.33
2023-04-16T17:54:15.524Z,7.05
2023-04-16T17:56:41.988Z,7.13
2023-04-16T17:59:08.398Z,7.78
2023-04-16T18:01:34.899Z,7.63
2023-04-16T18:04:01.587Z,8.20
2023-04-16T18:06:28.255Z,7.82
2023-04-16T18:08:54.620Z,7.20
2023-04-16T18:11:21.099Z,7.53
2023-04-16T18:13:47.553Z,8.38
2023-04-16T18:16:17.316Z,7.80
2023-04-16T18:18:44.648Z,7.88
2023-04-16T18:21:11.378Z,7.68
2023-04-16T18:23:37.817Z,8.27
2023-04-16T18:26:04.274Z,8.93
2023-04-16T18:28:30.678Z,9.10
2023-04-16T18:30:58.971Z,8.80
2023-04-16T18:33:52.664Z,9.15
2023-04-16T18:36:12.145Z,9.95
2023-04-16T18:38:49.438Z,9.70
2023-04-16T18:41:23.881Z,8.30
2023-04-16T18:43:50.572Z,8.40
2023-04-16T18:46:17.270Z,9.65
2023-04-16T18:48:47.069Z,8.65
2023-04-16T18:51:15.914Z,9.75
2023-04-16T18:53:45.229Z,9.40
2023-04-16T18:56:11.784Z,9.07
2023-04-16T18:58:38.271Z,9.07
2023-04-16T19:01:07.954Z,9.10
2023-04-16T19:03:34.706Z,9.82
2023-04-16T19:06:01.450Z,8.70
2023-04-16T19:08:28.097Z,9.13
2023-04-16T19:10:54.456Z,9.77
2023-04-16T19:13:21.054Z,9.85
2023-04-16T19:15:47.747Z,10.35
2023-04-16T19:18:14.157Z,8.70
2023-04-16T19:20:40.640Z,10.00
2023-04-16T19:23:08.938Z,10.30
2023-04-16T19:25:36.472Z,9.52
2023-04-16T19:28:03.780Z,8.73
2023-04-16T19:30:30.634Z,9.63
2023-04-16T19:32:57.253Z,9.43
2023-04-16T19:35:23.839Z,10.02
2023-04-16T19:37:50.486Z,10.25
2023-04-16T19:40:16.900Z,9.60
2023-04-16T19:42:45.213Z,9.37
2023-04-16T19:45:11.759Z,9.73
2023-04-16T19:47:38.279Z,9.18
2023-04-16T19:50:05.033Z,9.70
2023-04-16T19:52:37.184Z,9.95
2023-04-16T19:55:03.728Z,9.93
2023-04-16T19:57:30.175Z,10.15
2023-04-16T19:59:57.053Z,9.80
2023-04-16T20:02:23.516Z,10.13
2023-04-16T20:04:50.710Z,9.68
2023-04-16T20:07:17.495Z,10.07
2023-04-16T20:09:43.946Z,10.63
2023-04-16T20:12:10.395Z,9.88
2023-04-16T20:14:36.747Z,9.32
2023-04-16T20:17:03.531Z,10.88
2023-04-16T20:19:31.774Z,10.07
2023-04-16T20:21:58.388Z,10.93
2023-04-16T20:24:26.532Z,10.20
2023-04-16T20:26:52.929Z,10.40
2023-04-16T20:29:19.393Z,10.38
2023-04-16T20:31:46.141Z,9.13
2023-04-16T20:34:12.805Z,10.38
2023-04-16T20:36:39.208Z,9.52
2023-04-16T20:39:07.205Z,11.02
2023-04-16T20:41:33.955Z,11.65
2023-04-16T20:44:05.301Z,10.53
2023-04-16T20:46:33.972Z,11.38
2023-04-16T20:49:01.238Z,13.02
2023-04-16T20:51:27.653Z,11.50
2023-04-16T20:53:54.097Z,11.23
2023-04-16T20:56:20.522Z,10.37
2023-04-16T20:58:46.971Z,11.77
2023-04-16T21:01:13.520Z,11.73
2023-04-16T21:03:40.778Z,11.43
2023-04-16T21:06:07.355Z,11.82
2023-04-16T21:08:33.908Z,10.80
2023-04-16T21:11:00.524Z,11.35
2023-04-16T21:13:26.897Z,11.38
2023-04-16T21:15:53.365Z,9.45
2023-04-16T21:18:19.771Z,10.70
2023-04-16T21:20:46.284Z,10.30
2023-04-16T21:23:12.905Z,10.85
2023-04-16T21:25:39.337Z,11.32
2023-04-16T21:28:06.278Z,9.77
2023-04-16T21:30:32.964Z,10.32
2023-04-16T21:32:59.624Z,9.97
2023-04-16T21:35:26.042Z,11.27
2023-04-16T21:37:52.646Z,10.70
2023-04-16T21:40:19.067Z,10.68
2023-04-16T21:42:45.502Z,11.68
2023-04-16T21:45:12.022Z,9.80
2023-04-16T21:47:38.602Z,9.90
2023-04-16T21:50:05.783Z,10.52
2023-04-16T21:52:32.858Z,10.48
2023-04-16T21:55:00.519Z,10.93
2023-04-16T21:57:27.072Z,10.57
2023-04-16T21:59:53.651Z,11.48
2023-04-16T22:02:20.339Z,11.00
2023-04-16T22:04:47.338Z,11.00
2023-04-16T22:07:13.782Z,11.27
2023-04-16T22:09:40.842Z,12.23
2023-04-16T22:12:10.172Z,11.90
2023-04-16T22:14:37.117Z,12.30
2023-04-16T22:17:04.364Z,11.57
2023-04-16T22:19:30.796Z,11.70
2023-04-16T22:21:57.285Z,12.37
2023-04-16T22:24:23.993Z,12.07
2023-04-16T22:26:50.500Z,11.73
2023-04-16T22:29:16.899Z,13.25
2023-04-16T22:31:43.279Z,12.27
2023-04-16T22:34:09.795Z,11.77
2023-04-16T22:36:36.169Z,12.68
2023-04-16T22:39:02.687Z,12.75
2023-04-16T22:41:29.157Z,11.77
2023-04-16T22:43:55.521Z,13.05
2023-04-16T22:46:24.545Z,12.90
2023-04-16T22:48:51.137Z,12.23
2023-04-16T22:51:17.525Z,13.63
2023-04-16T22:53:43.990Z,12.07
2023-04-16T22:56:10.724Z,12.77
2023-04-16T22:58:37.232Z,12.23
2023-04-16T23:01:03.714Z,11.43
2023-04-16T23:03:30.864Z,12.38
2023-04-16T23:05:57.388Z,12.30
2023-04-16T23:08:23.873Z,12.70
2023-04-16T23:10:50.372Z,13.40
2023-04-16T23:13:17.289Z,13.38
2023-04-16T23:15:43.733Z,13.15
2023-04-16T23:18:10.355Z,12.98
2023-04-16T23:20:36.776Z,13.68
2023-04-16T23:23:03.179Z,13.07
2023-04-16T23:25:29.551Z,12.73
2023-04-16T23:27:56.639Z,14.02
2023-04-16T23:30:23.088Z,13.38
2023-04-16T23:32:49.507Z,12.88
2023-04-16T23:35:22.577Z,14.60
2023-04-16T23:37:49.877Z,13.50
2023-04-16T23:40:16.492Z,12.80
2023-04-16T23:42:43.072Z,12.85
2023-04-16T23:45:09.951Z,13.80
2023-04-16T23:47:36.403Z,12.70
2023-04-16T23:50:03.019Z,14.35
2023-04-16T23:52:29.437Z,13.25
2023-04-16T23:54:55.902Z,12.85
2023-04-16T23:57:22.278Z,12.93
2023-04-16T23:59:48.652Z,12.30
